Detall de PIREP

Printer-friendly versionPDF version

[2013/03/07 16:21:00]
Flight IATA:CT3302
Pilot Number:012
Company ICAO:CAT
Aircraft Type:A320/E
PAX:141
Departing Airport: LEZG
Destination Airport: DTTA
Alternate Airport:DABB
Online: VATSIM
Route:PONEN/N300F360 UN870 BCN/N300F370 UN859 GENIO UM134 ANB UA411 MORJA UM978 KEMIR
Flight Level:F370
No Slew and time accel
No pause
Crash detect
Detect pilot in Cockpit between each 30 and 45 minutes
16:21 Zero fuel Weight: 120703 Lbs, Fuel Weight: 20718 Lbs
16:21 VATSIM:LEZG 071600Z 12013KT 9999 FEW040 BKN070 18/11 Q0998
16:21 VATSIM:DTTA 071600Z 27013KT 9999 FEW023TCU 22/12 Q1010 NOSIG
16:21 VOICE CATALONIAN
16:22 Parking Brakes off
16:26 Take-off
16:26 Take off Weight: 140701 Lbs
16:26 Wind: 148º @ 017 Knots Heading: 121º
16:26 POS N41º 39´ 40´´ W001º 01´ 19´´
16:26 Gear Up: 165 Knots
16:26 Flaps:3 at 165 Knots
16:27 Flaps:2 at 192 Knots
16:27 Flaps:1 at 200 Knots
16:27 Flaps:0 at 203 Knots
16:41 Wind:248º@079 Knots Heading: 095º Ground Speed: 533 Knots Altitude 29931 ft
16:51 TOC
16:51 Fuel Weight: 15290 Lb
16:56 Wind:278º@098 Knots Heading: 176º Ground Speed: 485 Knots Altitude 36751 ft
17:11 Wind:280º@102 Knots Heading: 107º Ground Speed: 555 Knots Altitude 36870 ft
17:26 Wind:292º@094 Knots Heading: 107º Ground Speed: 550 Knots Altitude 36902 ft
17:36 TOD
17:36 Fuel Weight: 11453 Lb
17:41 Wind:313º@064 Knots Heading: 080º Ground Speed: 478 Knots Altitude 22185 ft
17:56 Wind:280º@024 Knots Heading: 149º Ground Speed: 263 Knots Altitude 4491 ft
18:00 Flaps:1 at 189 Knots
18:01 Flaps:3 at 182 Knots
18:01 Flaps:4 at 163 Knots
18:01 Gear Down: 160 Knots
18:02 Flaps:5 at 145 Knots
18:05 TouchDown:Rate -185 ft/min Speed: 135 Knots
18:05 VATSIM:DTTA 071730Z 24009KT 9999 FEW023 19/12 Q1011 NOSIG
18:05 Land
18:05 Wind:247º@009 Knots
18:05 Heading: 288º
18:05 Flight Duration: 01:39
18:05 Landing Weight: 129915 Lbs
18:05 POS N36º 51´ 03´´ E010º 13´ 42´´
18:07 Parking brakes on
18:07 Block to Block Duration: 01:45
18:07 Final Fuel: 9047 Lbls
18:07 Spent Fuel: 11671 Lbls
18:07 Flight Length: 733 NM
18:07 TOD Land Length: 153 NM

Exportar CSV

Powered by Drupal - Modified by Danger4k